sensor_id;sensor_type;location;lat;lon;timestamp;temperature;humidity
32201;DHT22;18701;45.588;5.288;2022-08-19T00:00:24;19.20;99.90
32201;DHT22;18701;45.588;5.288;2022-08-19T00:02:49;19.20;99.90
32201;DHT22;18701;45.588;5.288;2022-08-19T00:05:15;19.30;99.90
32201;DHT22;18701;45.588;5.288;2022-08-19T00:07:42;19.20;99.90
32201;DHT22;18701;45.588;5.288;2022-08-19T00:10:10;19.20;99.90
32201;DHT22;18701;45.588;5.288;2022-08-19T00:12:37;19.30;99.90
32201;DHT22;18701;45.588;5.288;2022-08-19T00:15:09;19.30;99.90
32201;DHT22;18701;45.588;5.288;2022-08-19T00:17:38;19.20;99.90
32201;DHT22;18701;45.588;5.288;2022-08-19T00:20:06;19.10;99.90
32201;DHT22;18701;45.588;5.288;2022-08-19T00:22:33;19.20;99.90
32201;DHT22;18701;45.588;5.288;2022-08-19T00:24:59;19.30;99.90
32201;DHT22;18701;45.588;5.288;2022-08-19T00:27:25;19.10;99.90
32201;DHT22;18701;45.588;5.288;2022-08-19T00:29:50;19.10;99.90
32201;DHT22;18701;45.588;5.288;2022-08-19T00:32:16;19.10;99.90
32201;DHT22;18701;45.588;5.288;2022-08-19T00:34:42;19.00;99.90
32201;DHT22;18701;45.588;5.288;2022-08-19T00:37:09;19.00;99.90
32201;DHT22;18701;45.588;5.288;2022-08-19T00:39:35;19.00;99.90
32201;DHT22;18701;45.588;5.288;2022-08-19T00:42:00;18.80;99.90
32201;DHT22;18701;45.588;5.288;2022-08-19T00:44:28;18.70;99.90
32201;DHT22;18701;45.588;5.288;2022-08-19T00:46:55;18.80;99.90
32201;DHT22;18701;45.588;5.288;2022-08-19T00:51:55;18.70;99.90
32201;DHT22;18701;45.588;5.288;2022-08-19T00:54:22;18.80;99.90
32201;DHT22;18701;45.588;5.288;2022-08-19T00:56:48;18.80;99.90
32201;DHT22;18701;45.588;5.288;2022-08-19T00:59:16;18.70;99.90
32201;DHT22;18701;45.588;5.288;2022-08-19T01:01:44;18.60;99.90
32201;DHT22;18701;45.588;5.288;2022-08-19T01:04:11;18.70;99.90
32201;DHT22;18701;45.588;5.288;2022-08-19T01:06:37;18.60;99.90
32201;DHT22;18701;45.588;5.288;2022-08-19T01:09:08;18.70;99.90
32201;DHT22;18701;45.588;5.288;2022-08-19T01:11:39;18.80;99.90
32201;DHT22;18701;45.588;5.288;2022-08-19T01:14:06;18.70;99.90
32201;DHT22;18701;45.588;5.288;2022-08-19T01:16:33;18.70;99.90
32201;DHT22;18701;45.588;5.288;2022-08-19T01:18:59;18.70;99.90
32201;DHT22;18701;45.588;5.288;2022-08-19T01:21:38;18.60;99.90
32201;DHT22;18701;45.588;5.288;2022-08-19T01:24:05;18.60;99.90
32201;DHT22;18701;45.588;5.288;2022-08-19T01:26:30;18.50;99.90
32201;DHT22;18701;45.588;5.288;2022-08-19T01:28:58;18.50;99.90
32201;DHT22;18701;45.588;5.288;2022-08-19T01:31:26;18.50;99.90
32201;DHT22;18701;45.588;5.288;2022-08-19T01:33:56;18.50;99.90
32201;DHT22;18701;45.588;5.288;2022-08-19T01:36:35;18.50;99.90
32201;DHT22;18701;45.588;5.288;2022-08-19T01:39:07;18.50;99.90
32201;DHT22;18701;45.588;5.288;2022-08-19T01:41:36;18.60;99.90
32201;DHT22;18701;45.588;5.288;2022-08-19T01:44:03;18.60;99.90
32201;DHT22;18701;45.588;5.288;2022-08-19T01:46:30;18.60;99.90
32201;DHT22;18701;45.588;5.288;2022-08-19T01:48:56;18.60;99.90
32201;DHT22;18701;45.588;5.288;2022-08-19T01:51:22;18.60;99.90
32201;DHT22;18701;45.588;5.288;2022-08-19T01:53:48;18.60;99.90
32201;DHT22;18701;45.588;5.288;2022-08-19T01:56:14;18.60;99.90
32201;DHT22;18701;45.588;5.288;2022-08-19T01:58:49;18.60;99.90
32201;DHT22;18701;45.588;5.288;2022-08-19T02:01:16;18.70;99.90
32201;DHT22;18701;45.588;5.288;2022-08-19T02:03:42;18.50;99.90
32201;DHT22;18701;45.588;5.288;2022-08-19T02:06:08;18.60;99.90
32201;DHT22;18701;45.588;5.288;2022-08-19T02:08:38;18.50;99.90
32201;DHT22;18701;45.588;5.288;2022-08-19T02:11:05;18.60;99.90
32201;DHT22;18701;45.588;5.288;2022-08-19T02:13:31;18.70;99.90
32201;DHT22;18701;45.588;5.288;2022-08-19T02:15:57;18.70;99.90
32201;DHT22;18701;45.588;5.288;2022-08-19T02:18:23;18.70;99.90
32201;DHT22;18701;45.588;5.288;2022-08-19T02:20:49;18.70;99.90
32201;DHT22;18701;45.588;5.288;2022-08-19T02:23:16;18.80;99.90
32201;DHT22;18701;45.588;5.288;2022-08-19T02:25:47;18.80;99.90
32201;DHT22;18701;45.588;5.288;2022-08-19T02:28:13;18.80;99.90
32201;DHT22;18701;45.588;5.288;2022-08-19T02:30:40;18.70;99.90
32201;DHT22;18701;45.588;5.288;2022-08-19T02:33:06;18.70;99.90
32201;DHT22;18701;45.588;5.288;2022-08-19T02:35:32;18.70;99.90
32201;DHT22;18701;45.588;5.288;2022-08-19T02:37:57;18.80;99.90
32201;DHT22;18701;45.588;5.288;2022-08-19T02:40:48;18.70;99.90
32201;DHT22;18701;45.588;5.288;2022-08-19T02:43:15;18.80;99.90
32201;DHT22;18701;45.588;5.288;2022-08-19T02:45:41;18.80;99.90
32201;DHT22;18701;45.588;5.288;2022-08-19T02:48:07;18.90;99.90
32201;DHT22;18701;45.588;5.288;2022-08-19T02:50:40;18.70;99.90
32201;DHT22;18701;45.588;5.288;2022-08-19T02:53:06;18.70;99.90
32201;DHT22;18701;45.588;5.288;2022-08-19T02:55:42;18.80;99.90
32201;DHT22;18701;45.588;5.288;2022-08-19T02:58:08;18.60;99.90
32201;DHT22;18701;45.588;5.288;2022-08-19T03:00:36;18.50;99.90
32201;DHT22;18701;45.588;5.288;2022-08-19T03:03:07;18.60;99.90
32201;DHT22;18701;45.588;5.288;2022-08-19T03:05:36;18.50;99.90
32201;DHT22;18701;45.588;5.288;2022-08-19T03:08:02;18.60;99.90
32201;DHT22;18701;45.588;5.288;2022-08-19T03:10:28;18.70;99.90
32201;DHT22;18701;45.588;5.288;2022-08-19T03:12:54;18.60;99.90
32201;DHT22;18701;45.588;5.288;2022-08-19T03:15:20;18.70;99.90
32201;DHT22;18701;45.588;5.288;2022-08-19T03:17:45;18.70;99.90
32201;DHT22;18701;45.588;5.288;2022-08-19T03:20:11;18.80;99.90
32201;DHT22;18701;45.588;5.288;2022-08-19T03:22:36;18.70;99.90
32201;DHT22;18701;45.588;5.288;2022-08-19T03:25:03;18.70;99.90
32201;DHT22;18701;45.588;5.288;2022-08-19T03:27:29;18.60;99.90
32201;DHT22;18701;45.588;5.288;2022-08-19T03:29:55;18.60;99.90
32201;DHT22;18701;45.588;5.288;2022-08-19T03:32:20;18.70;99.90
32201;DHT22;18701;45.588;5.288;2022-08-19T03:34:47;18.70;99.90
32201;DHT22;18701;45.588;5.288;2022-08-19T03:37:14;18.60;99.90
32201;DHT22;18701;45.588;5.288;2022-08-19T03:39:40;18.70;99.90
32201;DHT22;18701;45.588;5.288;2022-08-19T03:42:07;18.70;99.90
32201;DHT22;18701;45.588;5.288;2022-08-19T03:44:33;18.70;99.90
32201;DHT22;18701;45.588;5.288;2022-08-19T03:47:01;18.60;99.90
32201;DHT22;18701;45.588;5.288;2022-08-19T03:49:30;18.70;99.90
32201;DHT22;18701;45.588;5.288;2022-08-19T03:51:59;18.70;99.90
32201;DHT22;18701;45.588;5.288;2022-08-19T03:54:26;18.90;99.90
32201;DHT22;18701;45.588;5.288;2022-08-19T03:56:54;18.90;99.90
32201;DHT22;18701;45.588;5.288;2022-08-19T03:59:26;18.50;99.90
32201;DHT22;18701;45.588;5.288;2022-08-19T04:01:57;18.60;99.90
32201;DHT22;18701;45.588;5.288;2022-08-19T04:04:24;18.70;99.90
32201;DHT22;18701;45.588;5.288;2022-08-19T04:06:50;18.70;99.90
32201;DHT22;18701;45.588;5.288;2022-08-19T04:09:17;18.70;99.90
32201;DHT22;18701;45.588;5.288;2022-08-19T04:11:47;18.70;99.90
32201;DHT22;18701;45.588;5.288;2022-08-19T04:14:17;18.60;99.90
32201;DHT22;18701;45.588;5.288;2022-08-19T04:16:45;18.60;99.90
32201;DHT22;18701;45.588;5.288;2022-08-19T04:19:12;18.70;99.90
32201;DHT22;18701;45.588;5.288;2022-08-19T04:21:38;18.70;99.90
32201;DHT22;18701;45.588;5.288;2022-08-19T04:24:09;18.70;99.90
32201;DHT22;18701;45.588;5.288;2022-08-19T04:26:36;18.60;99.90
32201;DHT22;18701;45.588;5.288;2022-08-19T04:29:10;18.70;99.90
32201;DHT22;18701;45.588;5.288;2022-08-19T04:31:36;18.60;99.90
32201;DHT22;18701;45.588;5.288;2022-08-19T04:34:05;18.70;99.90
32201;DHT22;18701;45.588;5.288;2022-08-19T04:36:34;18.70;99.90
32201;DHT22;18701;45.588;5.288;2022-08-19T04:39:05;18.70;99.90
32201;DHT22;18701;45.588;5.288;2022-08-19T04:41:32;18.60;99.90
32201;DHT22;18701;45.588;5.288;2022-08-19T04:44:17;18.70;99.90
32201;DHT22;18701;45.588;5.288;2022-08-19T04:46:44;18.80;99.90
32201;DHT22;18701;45.588;5.288;2022-08-19T04:49:10;18.70;99.90
32201;DHT22;18701;45.588;5.288;2022-08-19T04:51:39;18.80;99.90
32201;DHT22;18701;45.588;5.288;2022-08-19T04:54:05;18.80;99.90
32201;DHT22;18701;45.588;5.288;2022-08-19T04:56:30;18.80;99.90
32201;DHT22;18701;45.588;5.288;2022-08-19T04:58:57;18.70;99.90
32201;DHT22;18701;45.588;5.288;2022-08-19T05:01:27;18.60;99.90
32201;DHT22;18701;45.588;5.288;2022-08-19T05:04:01;18.60;99.90
32201;DHT22;18701;45.588;5.288;2022-08-19T05:06:27;18.50;99.90
32201;DHT22;18701;45.588;5.288;2022-08-19T05:08:54;18.40;99.90
32201;DHT22;18701;45.588;5.288;2022-08-19T05:11:22;18.60;99.90
32201;DHT22;18701;45.588;5.288;2022-08-19T05:13:49;18.60;99.90
32201;DHT22;18701;45.588;5.288;2022-08-19T05:16:19;18.50;99.90
32201;DHT22;18701;45.588;5.288;2022-08-19T05:18:45;18.60;99.90
32201;DHT22;18701;45.588;5.288;2022-08-19T05:21:30;18.60;99.90
32201;DHT22;18701;45.588;5.288;2022-08-19T05:24:15;18.60;99.90
32201;DHT22;18701;45.588;5.288;2022-08-19T05:26:44;18.60;99.90
32201;DHT22;18701;45.588;5.288;2022-08-19T05:29:12;18.60;99.90
32201;DHT22;18701;45.588;5.288;2022-08-19T05:31:39;18.60;99.90
32201;DHT22;18701;45.588;5.288;2022-08-19T05:34:06;18.60;99.90
32201;DHT22;18701;45.588;5.288;2022-08-19T05:36:42;18.60;99.90
32201;DHT22;18701;45.588;5.288;2022-08-19T05:39:13;18.60;99.90
32201;DHT22;18701;45.588;5.288;2022-08-19T05:41:48;18.60;99.90
32201;DHT22;18701;45.588;5.288;2022-08-19T05:44:14;18.60;99.90
32201;DHT22;18701;45.588;5.288;2022-08-19T05:46:41;18.70;99.90
32201;DHT22;18701;45.588;5.288;2022-08-19T05:49:08;18.70;99.90
32201;DHT22;18701;45.588;5.288;2022-08-19T05:51:37;18.80;99.90
32201;DHT22;18701;45.588;5.288;2022-08-19T05:54:04;18.80;99.90
32201;DHT22;18701;45.588;5.288;2022-08-19T05:56:31;18.60;99.90
32201;DHT22;18701;45.588;5.288;2022-08-19T05:58:58;18.60;99.90
32201;DHT22;18701;45.588;5.288;2022-08-19T06:01:25;18.60;99.90
32201;DHT22;18701;45.588;5.288;2022-08-19T06:03:51;18.60;99.90
32201;DHT22;18701;45.588;5.288;2022-08-19T06:06:17;18.50;99.90
32201;DHT22;18701;45.588;5.288;2022-08-19T06:08:43;18.70;99.90
32201;DHT22;18701;45.588;5.288;2022-08-19T06:11:16;18.70;99.90
32201;DHT22;18701;45.588;5.288;2022-08-19T06:13:43;18.70;99.90
32201;DHT22;18701;45.588;5.288;2022-08-19T06:16:10;18.50;99.90
32201;DHT22;18701;45.588;5.288;2022-08-19T06:18:35;18.60;99.90
32201;DHT22;18701;45.588;5.288;2022-08-19T06:21:01;18.70;99.90
32201;DHT22;18701;45.588;5.288;2022-08-19T06:23:29;18.80;99.90
32201;DHT22;18701;45.588;5.288;2022-08-19T06:25:55;18.70;99.90
32201;DHT22;18701;45.588;5.288;2022-08-19T06:28:21;18.60;99.90
32201;DHT22;18701;45.588;5.288;2022-08-19T06:30:48;18.60;99.90
32201;DHT22;18701;45.588;5.288;2022-08-19T06:33:13;18.70;99.90
32201;DHT22;18701;45.588;5.288;2022-08-19T06:35:41;18.70;99.90
32201;DHT22;18701;45.588;5.288;2022-08-19T06:38:06;18.90;99.90
32201;DHT22;18701;45.588;5.288;2022-08-19T06:40:32;18.90;99.90
32201;DHT22;18701;45.588;5.288;2022-08-19T06:42:58;18.90;99.90
32201;DHT22;18701;45.588;5.288;2022-08-19T06:45:25;18.80;99.90
32201;DHT22;18701;45.588;5.288;2022-08-19T06:47:52;18.90;99.90
32201;DHT22;18701;45.588;5.288;2022-08-19T06:50:19;18.80;99.90
32201;DHT22;18701;45.588;5.288;2022-08-19T06:52:45;18.80;99.90
32201;DHT22;18701;45.588;5.288;2022-08-19T06:55:12;18.80;99.90
32201;DHT22;18701;45.588;5.288;2022-08-19T06:57:37;18.90;99.90
32201;DHT22;18701;45.588;5.288;2022-08-19T07:00:05;18.80;99.90
32201;DHT22;18701;45.588;5.288;2022-08-19T07:02:36;18.70;99.90
32201;DHT22;18701;45.588;5.288;2022-08-19T07:05:03;18.80;99.90
32201;DHT22;18701;45.588;5.288;2022-08-19T07:07:29;18.90;99.90
32201;DHT22;18701;45.588;5.288;2022-08-19T07:09:56;18.80;99.90
32201;DHT22;18701;45.588;5.288;2022-08-19T07:12:22;19.00;99.90
32201;DHT22;18701;45.588;5.288;2022-08-19T07:14:47;19.00;99.90
32201;DHT22;18701;45.588;5.288;2022-08-19T07:17:14;19.00;99.90
32201;DHT22;18701;45.588;5.288;2022-08-19T07:19:41;19.00;99.90
32201;DHT22;18701;45.588;5.288;2022-08-19T07:22:09;19.10;99.90
32201;DHT22;18701;45.588;5.288;2022-08-19T07:24:35;19.10;99.90
32201;DHT22;18701;45.588;5.288;2022-08-19T07:27:02;19.00;99.90
32201;DHT22;18701;45.588;5.288;2022-08-19T07:29:33;19.00;99.90
32201;DHT22;18701;45.588;5.288;2022-08-19T07:32:00;19.00;99.90
32201;DHT22;18701;45.588;5.288;2022-08-19T07:34:28;19.10;99.90
32201;DHT22;18701;45.588;5.288;2022-08-19T07:36:55;19.10;99.90
32201;DHT22;18701;45.588;5.288;2022-08-19T07:39:27;19.10;99.90
32201;DHT22;18701;45.588;5.288;2022-08-19T07:41:54;19.00;99.90
32201;DHT22;18701;45.588;5.288;2022-08-19T07:44:20;19.20;99.90
32201;DHT22;18701;45.588;5.288;2022-08-19T07:46:50;19.10;99.90
32201;DHT22;18701;45.588;5.288;2022-08-19T07:49:18;18.90;99.90
32201;DHT22;18701;45.588;5.288;2022-08-19T07:52:07;18.80;99.90
32201;DHT22;18701;45.588;5.288;2022-08-19T07:54:38;18.80;99.90
32201;DHT22;18701;45.588;5.288;2022-08-19T07:57:07;19.20;99.90
32201;DHT22;18701;45.588;5.288;2022-08-19T07:59:33;19.20;99.90
32201;DHT22;18701;45.588;5.288;2022-08-19T08:02:02;19.00;99.90
32201;DHT22;18701;45.588;5.288;2022-08-19T08:04:29;19.00;99.90
32201;DHT22;18701;45.588;5.288;2022-08-19T08:07:14;19.10;99.90
32201;DHT22;18701;45.588;5.288;2022-08-19T08:09:58;19.00;99.90
32201;DHT22;18701;45.588;5.288;2022-08-19T08:12:31;19.00;99.90
32201;DHT22;18701;45.588;5.288;2022-08-19T08:15:00;19.10;99.90
32201;DHT22;18701;45.588;5.288;2022-08-19T08:17:36;19.00;99.90
32201;DHT22;18701;45.588;5.288;2022-08-19T08:20:04;19.00;99.90
32201;DHT22;18701;45.588;5.288;2022-08-19T08:22:32;19.10;99.90
32201;DHT22;18701;45.588;5.288;2022-08-19T08:25:23;19.10;99.90
32201;DHT22;18701;45.588;5.288;2022-08-19T08:27:50;19.20;99.90
32201;DHT22;18701;45.588;5.288;2022-08-19T08:30:21;19.20;99.90
32201;DHT22;18701;45.588;5.288;2022-08-19T08:32:48;19.20;99.90
32201;DHT22;18701;45.588;5.288;2022-08-19T08:35:18;19.30;99.90
32201;DHT22;18701;45.588;5.288;2022-08-19T08:37:45;19.30;99.90
32201;DHT22;18701;45.588;5.288;2022-08-19T08:46:11;19.50;99.90
32201;DHT22;18701;45.588;5.288;2022-08-19T08:48:44;19.70;99.90
32201;DHT22;18701;45.588;5.288;2022-08-19T08:51:18;19.60;99.90
32201;DHT22;18701;45.588;5.288;2022-08-19T08:53:45;19.60;99.90
32201;DHT22;18701;45.588;5.288;2022-08-19T08:56:12;19.80;99.90
32201;DHT22;18701;45.588;5.288;2022-08-19T08:58:44;19.70;99.90
32201;DHT22;18701;45.588;5.288;2022-08-19T09:01:12;19.70;99.90
32201;DHT22;18701;45.588;5.288;2022-08-19T09:03:40;19.60;99.90
32201;DHT22;18701;45.588;5.288;2022-08-19T09:09:38;19.70;99.90
32201;DHT22;18701;45.588;5.288;2022-08-19T09:12:28;19.40;99.90
32201;DHT22;18701;45.588;5.288;2022-08-19T09:15:08;19.50;99.90
32201;DHT22;18701;45.588;5.288;2022-08-19T09:17:35;19.60;99.90
32201;DHT22;18701;45.588;5.288;2022-08-19T09:20:12;19.60;99.90
32201;DHT22;18701;45.588;5.288;2022-08-19T09:22:41;19.60;99.90
32201;DHT22;18701;45.588;5.288;2022-08-19T09:25:13;19.60;99.90
32201;DHT22;18701;45.588;5.288;2022-08-19T09:27:41;19.50;99.90
32201;DHT22;18701;45.588;5.288;2022-08-19T09:30:08;19.70;99.90
32201;DHT22;18701;45.588;5.288;2022-08-19T09:32:35;19.80;99.90
32201;DHT22;18701;45.588;5.288;2022-08-19T09:35:01;19.80;99.90
32201;DHT22;18701;45.588;5.288;2022-08-19T09:37:27;20.00;99.90
32201;DHT22;18701;45.588;5.288;2022-08-19T09:39:52;19.90;99.90
32201;DHT22;18701;45.588;5.288;2022-08-19T09:42:19;20.00;99.90
32201;DHT22;18701;45.588;5.288;2022-08-19T09:44:45;20.00;99.90
32201;DHT22;18701;45.588;5.288;2022-08-19T09:47:12;20.10;99.90
32201;DHT22;18701;45.588;5.288;2022-08-19T09:49:38;19.90;99.90
32201;DHT22;18701;45.588;5.288;2022-08-19T09:52:11;20.10;99.90
32201;DHT22;18701;45.588;5.288;2022-08-19T09:54:38;20.40;99.90
32201;DHT22;18701;45.588;5.288;2022-08-19T09:57:06;20.40;99.90
32201;DHT22;18701;45.588;5.288;2022-08-19T09:59:32;20.70;99.90
32201;DHT22;18701;45.588;5.288;2022-08-19T10:01:57;20.70;99.90
32201;DHT22;18701;45.588;5.288;2022-08-19T10:04:23;20.90;99.90
32201;DHT22;18701;45.588;5.288;2022-08-19T10:07:08;20.70;99.90
32201;DHT22;18701;45.588;5.288;2022-08-19T10:09:37;20.90;99.90
32201;DHT22;18701;45.588;5.288;2022-08-19T10:12:06;21.10;99.90
32201;DHT22;18701;45.588;5.288;2022-08-19T10:14:33;21.50;99.90
32201;DHT22;18701;45.588;5.288;2022-08-19T10:16:59;21.70;99.90
32201;DHT22;18701;45.588;5.288;2022-08-19T10:19:26;21.60;99.90
32201;DHT22;18701;45.588;5.288;2022-08-19T10:21:57;21.30;99.90
32201;DHT22;18701;45.588;5.288;2022-08-19T10:24:23;21.00;99.90
32201;DHT22;18701;45.588;5.288;2022-08-19T10:26:51;20.90;99.90
32201;DHT22;18701;45.588;5.288;2022-08-19T10:29:16;20.80;99.90
32201;DHT22;18701;45.588;5.288;2022-08-19T10:31:42;20.40;99.90
32201;DHT22;18701;45.588;5.288;2022-08-19T10:34:08;20.20;99.90
32201;DHT22;18701;45.588;5.288;2022-08-19T10:36:37;20.10;99.90
32201;DHT22;18701;45.588;5.288;2022-08-19T10:39:07;20.00;99.90
32201;DHT22;18701;45.588;5.288;2022-08-19T10:41:36;20.00;99.90
32201;DHT22;18701;45.588;5.288;2022-08-19T10:44:05;20.10;99.90
32201;DHT22;18701;45.588;5.288;2022-08-19T10:46:32;20.00;99.90
32201;DHT22;18701;45.588;5.288;2022-08-19T10:48:59;20.00;99.90
32201;DHT22;18701;45.588;5.288;2022-08-19T10:51:25;19.80;99.90
32201;DHT22;18701;45.588;5.288;2022-08-19T10:54:09;19.80;99.90
32201;DHT22;18701;45.588;5.288;2022-08-19T10:56:35;19.80;99.90
32201;DHT22;18701;45.588;5.288;2022-08-19T10:59:26;19.90;99.90
32201;DHT22;18701;45.588;5.288;2022-08-19T11:01:54;19.80;99.90
32201;DHT22;18701;45.588;5.288;2022-08-19T11:04:20;19.70;99.90
32201;DHT22;18701;45.588;5.288;2022-08-19T11:06:48;19.80;99.90
32201;DHT22;18701;45.588;5.288;2022-08-19T11:09:17;19.80;99.90
32201;DHT22;18701;45.588;5.288;2022-08-19T11:11:43;19.90;99.90
32201;DHT22;18701;45.588;5.288;2022-08-19T11:14:15;19.80;99.90
32201;DHT22;18701;45.588;5.288;2022-08-19T11:16:41;19.80;99.90
32201;DHT22;18701;45.588;5.288;2022-08-19T11:19:09;19.90;99.90
32201;DHT22;18701;45.588;5.288;2022-08-19T11:21:38;19.90;99.90
32201;DHT22;18701;45.588;5.288;2022-08-19T11:24:10;19.90;99.90
32201;DHT22;18701;45.588;5.288;2022-08-19T11:26:37;19.90;99.90
32201;DHT22;18701;45.588;5.288;2022-08-19T11:29:05;19.90;99.90
32201;DHT22;18701;45.588;5.288;2022-08-19T11:31:33;20.00;99.90
32201;DHT22;18701;45.588;5.288;2022-08-19T11:34:03;19.90;99.90
32201;DHT22;18701;45.588;5.288;2022-08-19T11:36:33;20.00;99.90
32201;DHT22;18701;45.588;5.288;2022-08-19T11:39:04;19.90;99.90
32201;DHT22;18701;45.588;5.288;2022-08-19T11:41:30;20.00;99.90
32201;DHT22;18701;45.588;5.288;2022-08-19T11:43:56;19.90;99.90
32201;DHT22;18701;45.588;5.288;2022-08-19T11:46:23;20.00;99.90
32201;DHT22;18701;45.588;5.288;2022-08-19T11:48:50;19.90;99.90
32201;DHT22;18701;45.588;5.288;2022-08-19T11:51:19;20.10;99.90
32201;DHT22;18701;45.588;5.288;2022-08-19T11:53:46;20.10;99.90
32201;DHT22;18701;45.588;5.288;2022-08-19T11:56:12;20.20;99.90
32201;DHT22;18701;45.588;5.288;2022-08-19T11:58:38;20.20;99.90
32201;DHT22;18701;45.588;5.288;2022-08-19T12:01:12;20.10;99.90
32201;DHT22;18701;45.588;5.288;2022-08-19T12:03:39;19.90;99.90
32201;DHT22;18701;45.588;5.288;2022-08-19T12:06:11;19.90;99.90
32201;DHT22;18701;45.588;5.288;2022-08-19T12:08:42;20.00;99.90
32201;DHT22;18701;45.588;5.288;2022-08-19T12:11:09;20.00;99.90
32201;DHT22;18701;45.588;5.288;2022-08-19T12:13:36;20.00;99.90
32201;DHT22;18701;45.588;5.288;2022-08-19T12:16:08;19.80;99.90
32201;DHT22;18701;45.588;5.288;2022-08-19T12:18:36;19.80;99.90
32201;DHT22;18701;45.588;5.288;2022-08-19T12:21:02;19.90;99.90
32201;DHT22;18701;45.588;5.288;2022-08-19T12:23:28;20.00;99.90
32201;DHT22;18701;45.588;5.288;2022-08-19T12:25:54;20.10;99.90
32201;DHT22;18701;45.588;5.288;2022-08-19T12:28:23;20.00;99.90
32201;DHT22;18701;45.588;5.288;2022-08-19T12:30:49;20.10;99.90
32201;DHT22;18701;45.588;5.288;2022-08-19T12:33:18;20.20;99.90
32201;DHT22;18701;45.588;5.288;2022-08-19T12:35:45;20.20;99.90
32201;DHT22;18701;45.588;5.288;2022-08-19T12:38:12;20.30;99.90
32201;DHT22;18701;45.588;5.288;2022-08-19T12:40:38;20.20;99.90
32201;DHT22;18701;45.588;5.288;2022-08-19T12:43:06;20.20;99.90
32201;DHT22;18701;45.588;5.288;2022-08-19T12:45:32;20.30;99.90
32201;DHT22;18701;45.588;5.288;2022-08-19T12:47:58;20.40;99.90
32201;DHT22;18701;45.588;5.288;2022-08-19T12:50:23;20.50;99.90
32201;DHT22;18701;45.588;5.288;2022-08-19T12:52:49;20.70;99.90
32201;DHT22;18701;45.588;5.288;2022-08-19T12:55:15;20.80;99.90
32201;DHT22;18701;45.588;5.288;2022-08-19T12:57:42;20.90;99.90
32201;DHT22;18701;45.588;5.288;2022-08-19T13:00:13;20.90;99.90
32201;DHT22;18701;45.588;5.288;2022-08-19T13:02:42;21.00;99.90
32201;DHT22;18701;45.588;5.288;2022-08-19T13:05:11;21.20;99.90
32201;DHT22;18701;45.588;5.288;2022-08-19T13:07:39;21.40;99.90
32201;DHT22;18701;45.588;5.288;2022-08-19T13:10:07;21.40;99.90
32201;DHT22;18701;45.588;5.288;2022-08-19T13:12:33;21.40;99.90
32201;DHT22;18701;45.588;5.288;2022-08-19T13:15:02;21.10;99.90
32201;DHT22;18701;45.588;5.288;2022-08-19T13:17:28;21.10;99.90
32201;DHT22;18701;45.588;5.288;2022-08-19T13:19:53;21.10;99.90
32201;DHT22;18701;45.588;5.288;2022-08-19T13:22:19;21.00;99.90
32201;DHT22;18701;45.588;5.288;2022-08-19T13:24:45;21.10;99.90
32201;DHT22;18701;45.588;5.288;2022-08-19T13:27:11;20.90;99.90
32201;DHT22;18701;45.588;5.288;2022-08-19T13:29:36;20.70;99.90
32201;DHT22;18701;45.588;5.288;2022-08-19T13:32:20;20.70;99.90
32201;DHT22;18701;45.588;5.288;2022-08-19T13:35:05;20.80;99.90
32201;DHT22;18701;45.588;5.288;2022-08-19T13:37:30;21.00;99.90
32201;DHT22;18701;45.588;5.288;2022-08-19T13:40:13;21.00;99.90
32201;DHT22;18701;45.588;5.288;2022-08-19T13:42:42;21.00;99.90
32201;DHT22;18701;45.588;5.288;2022-08-19T13:45:09;21.10;99.90
32201;DHT22;18701;45.588;5.288;2022-08-19T13:47:35;21.10;99.90
32201;DHT22;18701;45.588;5.288;2022-08-19T13:50:08;21.00;99.90
32201;DHT22;18701;45.588;5.288;2022-08-19T13:52:35;21.10;99.90
32201;DHT22;18701;45.588;5.288;2022-08-19T13:55:00;21.20;99.90
32201;DHT22;18701;45.588;5.288;2022-08-19T13:57:26;21.30;99.90
32201;DHT22;18701;45.588;5.288;2022-08-19T13:59:51;21.30;99.90
32201;DHT22;18701;45.588;5.288;2022-08-19T14:02:17;21.60;99.90
32201;DHT22;18701;45.588;5.288;2022-08-19T14:04:42;21.80;99.90
32201;DHT22;18701;45.588;5.288;2022-08-19T14:07:08;22.10;99.90
32201;DHT22;18701;45.588;5.288;2022-08-19T14:09:34;22.60;99.90
32201;DHT22;18701;45.588;5.288;2022-08-19T14:12:00;23.40;99.90
32201;DHT22;18701;45.588;5.288;2022-08-19T14:14:26;24.40;99.90
32201;DHT22;18701;45.588;5.288;2022-08-19T14:16:51;25.20;99.90
32201;DHT22;18701;45.588;5.288;2022-08-19T14:19:17;25.70;99.90
32201;DHT22;18701;45.588;5.288;2022-08-19T14:21:43;25.30;99.90
32201;DHT22;18701;45.588;5.288;2022-08-19T14:24:09;25.90;99.90
32201;DHT22;18701;45.588;5.288;2022-08-19T14:26:37;26.30;99.90
32201;DHT22;18701;45.588;5.288;2022-08-19T14:29:04;26.90;99.90
32201;DHT22;18701;45.588;5.288;2022-08-19T14:31:32;27.00;99.90
32201;DHT22;18701;45.588;5.288;2022-08-19T14:33:58;27.20;99.90
32201;DHT22;18701;45.588;5.288;2022-08-19T14:36:23;27.00;99.90
32201;DHT22;18701;45.588;5.288;2022-08-19T14:38:49;27.20;99.90
32201;DHT22;18701;45.588;5.288;2022-08-19T14:41:20;27.50;99.90
32201;DHT22;18701;45.588;5.288;2022-08-19T14:43:49;27.40;99.90
32201;DHT22;18701;45.588;5.288;2022-08-19T14:46:18;27.50;99.90
32201;DHT22;18701;45.588;5.288;2022-08-19T14:48:48;27.20;99.90
32201;DHT22;18701;45.588;5.288;2022-08-19T14:51:14;27.90;99.90
32201;DHT22;18701;45.588;5.288;2022-08-19T14:53:41;28.20;99.90
32201;DHT22;18701;45.588;5.288;2022-08-19T14:56:12;28.20;99.90
32201;DHT22;18701;45.588;5.288;2022-08-19T14:58:42;27.80;99.90
32201;DHT22;18701;45.588;5.288;2022-08-19T15:01:09;28.20;99.90
32201;DHT22;18701;45.588;5.288;2022-08-19T15:03:36;28.20;99.90
32201;DHT22;18701;45.588;5.288;2022-08-19T15:06:03;28.40;99.90
32201;DHT22;18701;45.588;5.288;2022-08-19T15:08:31;28.60;99.90
32201;DHT22;18701;45.588;5.288;2022-08-19T15:10:58;27.70;99.90
32201;DHT22;18701;45.588;5.288;2022-08-19T15:13:25;27.70;99.90
32201;DHT22;18701;45.588;5.288;2022-08-19T15:15:52;27.90;99.90
32201;DHT22;18701;45.588;5.288;2022-08-19T15:18:19;28.30;99.90
32201;DHT22;18701;45.588;5.288;2022-08-19T15:20:46;28.60;99.90
32201;DHT22;18701;45.588;5.288;2022-08-19T15:23:16;28.90;99.90
32201;DHT22;18701;45.588;5.288;2022-08-19T15:25:42;28.20;99.60
32201;DHT22;18701;45.588;5.288;2022-08-19T15:28:09;27.70;99.90
32201;DHT22;18701;45.588;5.288;2022-08-19T15:30:37;27.40;99.30
32201;DHT22;18701;45.588;5.288;2022-08-19T15:33:03;28.40;99.90
32201;DHT22;18701;45.588;5.288;2022-08-19T15:35:32;28.40;99.40
32201;DHT22;18701;45.588;5.288;2022-08-19T15:38:00;28.40;99.00
32201;DHT22;18701;45.588;5.288;2022-08-19T15:40:27;28.30;99.80
32201;DHT22;18701;45.588;5.288;2022-08-19T15:42:53;28.30;99.30
32201;DHT22;18701;45.588;5.288;2022-08-19T15:45:20;28.50;99.30
32201;DHT22;18701;45.588;5.288;2022-08-19T15:47:46;28.50;98.60